sensor_id;sensor_type;location;lat;lon;timestamp;pressure;altitude;pressure_sealevel;temperature;humidity
21086;BME280;34247;50.064;19.970;2022-08-25T00:00:43;99542.19;;;22.50;100.00
21086;BME280;34247;50.064;19.970;2022-08-25T00:02:01;99539.66;;;22.48;100.00
21086;BME280;34247;50.064;19.970;2022-08-25T00:03:19;99532.38;;;22.49;100.00
21086;BME280;34247;50.064;19.970;2022-08-25T00:04:29;99528.00;;;22.48;100.00
21086;BME280;34247;50.064;19.970;2022-08-25T00:05:41;99534.06;;;22.50;100.00
21086;BME280;34247;50.064;19.970;2022-08-25T00:06:50;99534.25;;;22.48;100.00
21086;BME280;34247;50.064;19.970;2022-08-25T00:08:05;99534.06;;;22.50;100.00
21086;BME280;34247;50.064;19.970;2022-08-25T00:09:19;99537.78;;;22.49;100.00
21086;BME280;34247;50.064;19.970;2022-08-25T00:10:33;99529.88;;;22.47;100.00
21086;BME280;34247;50.064;19.970;2022-08-25T00:11:46;99539.00;;;22.46;100.00
21086;BME280;34247;50.064;19.970;2022-08-25T00:12:57;99533.94;;;22.43;100.00
21086;BME280;34247;50.064;19.970;2022-08-25T00:14:13;99526.16;;;22.40;100.00
21086;BME280;34247;50.064;19.970;2022-08-25T00:15:24;99533.44;;;22.40;100.00
21086;BME280;34247;50.064;19.970;2022-08-25T00:16:30;99529.72;;;22.41;100.00
21086;BME280;34247;50.064;19.970;2022-08-25T00:17:41;99529.38;;;22.36;100.00
21086;BME280;34247;50.064;19.970;2022-08-25T00:18:56;99520.94;;;22.30;100.00
21086;BME280;34247;50.064;19.970;2022-08-25T00:20:08;99536.34;;;22.38;100.00
21086;BME280;34247;50.064;19.970;2022-08-25T00:21:24;99528.91;;;22.32;100.00
21086;BME280;34247;50.064;19.970;2022-08-25T00:22:32;99533.78;;;22.37;100.00
21086;BME280;34247;50.064;19.970;2022-08-25T00:23:46;99529.38;;;22.36;100.00
21086;BME280;34247;50.064;19.970;2022-08-25T00:25:00;99542.06;;;22.35;100.00
21086;BME280;34247;50.064;19.970;2022-08-25T00:26:13;99522.81;;;22.30;100.00
21086;BME280;34247;50.064;19.970;2022-08-25T00:27:26;99539.19;;;22.37;100.00
21086;BME280;34247;50.064;19.970;2022-08-25T00:28:41;99538.34;;;22.36;100.00
21086;BME280;34247;50.064;19.970;2022-08-25T00:29:54;99533.78;;;22.37;100.00
21086;BME280;34247;50.064;19.970;2022-08-25T00:31:02;99535.63;;;22.36;100.00
21086;BME280;34247;50.064;19.970;2022-08-25T00:32:16;99527.22;;;22.31;100.00
21086;BME280;34247;50.064;19.970;2022-08-25T00:33:22;99521.66;;;22.24;100.00
21086;BME280;34247;50.064;19.970;2022-08-25T00:34:41;99529.94;;;22.31;100.00
21086;BME280;34247;50.064;19.970;2022-08-25T00:35:53;99524.53;;;22.31;100.00
21086;BME280;34247;50.064;19.970;2022-08-25T00:37:08;99522.16;;;22.28;100.00
21086;BME280;34247;50.064;19.970;2022-08-25T00:38:24;99526.19;;;22.32;100.00
21086;BME280;34247;50.064;19.970;2022-08-25T00:39:46;99501.75;;;22.17;100.00
21086;BME280;34247;50.064;19.970;2022-08-25T00:40:57;99518.25;;;22.30;100.00
21086;BME280;34247;50.064;19.970;2022-08-25T00:42:12;99521.97;;;22.29;100.00
21086;BME280;34247;50.064;19.970;2022-08-25T00:44:49;99523.66;;;22.30;100.00
21086;BME280;34247;50.064;19.970;2022-08-25T00:45:59;99518.25;;;22.30;100.00
21086;BME280;34247;50.064;19.970;2022-08-25T00:47:11;99528.41;;;22.28;100.00
21086;BME280;34247;50.064;19.970;2022-08-25T00:48:25;99522.31;;;22.26;100.00
21086;BME280;34247;50.064;19.970;2022-08-25T00:49:57;99533.81;;;22.28;100.00
21086;BME280;34247;50.064;19.970;2022-08-25T00:51:24;99528.56;;;22.27;100.00
21086;BME280;34247;50.064;19.970;2022-08-25T00:52:49;99515.25;;;22.25;100.00
21086;BME280;34247;50.064;19.970;2022-08-25T00:53:59;99522.16;;;22.28;100.00
21086;BME280;34247;50.064;19.970;2022-08-25T00:55:40;99516.75;;;22.28;100.00
21086;BME280;34247;50.064;19.970;2022-08-25T00:56:50;99526.06;;;22.25;100.00
21086;BME280;34247;50.064;19.970;2022-08-25T00:58:21;99524.38;;;22.24;100.00
21086;BME280;34247;50.064;19.970;2022-08-25T00:59:36;99527.22;;;22.23;100.00
21086;BME280;34247;50.064;19.970;2022-08-25T01:00:50;99525.72;;;22.20;100.00
21086;BME280;34247;50.064;19.970;2022-08-25T01:02:10;99524.41;;;22.16;100.00
21086;BME280;34247;50.064;19.970;2022-08-25T01:03:31;99523.72;;;22.14;100.00
21086;BME280;34247;50.064;19.970;2022-08-25T01:04:45;99528.63;;;22.11;100.00
21086;BME280;34247;50.064;19.970;2022-08-25T01:05:57;99527.59;;;22.12;100.00
21086;BME280;34247;50.064;19.970;2022-08-25T01:07:08;99531.16;;;22.12;100.00
21086;BME280;34247;50.064;19.970;2022-08-25T01:08:30;99526.22;;;22.08;100.00
21086;BME280;34247;50.064;19.970;2022-08-25T01:09:49;99530.66;;;22.09;100.00
21086;BME280;34247;50.064;19.970;2022-08-25T01:11:08;99529.28;;;22.05;100.00
21086;BME280;34247;50.064;19.970;2022-08-25T01:12:24;99528.25;;;22.06;100.00
21086;BME280;34247;50.064;19.970;2022-08-25T01:13:50;99523.53;;;21.99;100.00
21086;BME280;34247;50.064;19.970;2022-08-25T01:15:04;99525.41;;;21.99;100.00
21086;BME280;34247;50.064;19.970;2022-08-25T01:16:24;99520.84;;;21.99;100.00
21086;BME280;34247;50.064;19.970;2022-08-25T01:17:54;99523.53;;;21.99;100.00
21086;BME280;34247;50.064;19.970;2022-08-25T01:19:26;99529.13;;;21.98;100.00
21086;BME280;34247;50.064;19.970;2022-08-25T01:20:41;99532.50;;;22.00;100.00
21086;BME280;34247;50.064;19.970;2022-08-25T01:21:56;99528.28;;;21.97;100.00
21086;BME280;34247;50.064;19.970;2022-08-25T01:23:07;99518.66;;;21.95;100.00
21086;BME280;34247;50.064;19.970;2022-08-25T01:24:58;99523.06;;;21.96;100.00
21086;BME280;34247;50.064;19.970;2022-08-25T01:26:22;99523.53;;;21.99;100.00
21086;BME280;34247;50.064;19.970;2022-08-25T01:27:38;99521.69;;;22.00;100.00
21086;BME280;34247;50.064;19.970;2022-08-25T01:28:52;99517.66;;;21.96;100.00
21086;BME280;34247;50.064;19.970;2022-08-25T01:30:22;99508.72;;;21.95;100.00
21086;BME280;34247;50.064;19.970;2022-08-25T01:31:35;99514.94;;;21.96;100.00
21086;BME280;34247;50.064;19.970;2022-08-25T01:32:47;99511.41;;;21.95;100.00
21086;BME280;34247;50.064;19.970;2022-08-25T01:34:06;99509.53;;;21.96;100.00
21086;BME280;34247;50.064;19.970;2022-08-25T01:35:17;99487.44;;;21.84;100.00
21086;BME280;34247;50.064;19.970;2022-08-25T01:36:44;99510.56;;;21.95;100.00
21086;BME280;34247;50.064;19.970;2022-08-25T01:37:55;99501.28;;;21.89;100.00
21086;BME280;34247;50.064;19.970;2022-08-25T01:39:13;99506.31;;;21.92;100.00
21086;BME280;34247;50.064;19.970;2022-08-25T01:40:48;99509.53;;;21.96;100.00
21086;BME280;34247;50.064;19.970;2022-08-25T01:43:38;99502.97;;;21.90;100.00
21086;BME280;34247;50.064;19.970;2022-08-25T01:45:02;99498.41;;;21.91;100.00
21086;BME280;34247;50.064;19.970;2022-08-25T01:46:14;99500.25;;;21.90;100.00
21086;BME280;34247;50.064;19.970;2022-08-25T01:47:31;99503.97;;;21.89;100.00
21086;BME280;34247;50.064;19.970;2022-08-25T01:48:50;99498.75;;;21.88;100.00
21086;BME280;34247;50.064;19.970;2022-08-25T01:50:05;99498.91;;;21.86;100.00
21086;BME280;34247;50.064;19.970;2022-08-25T01:51:23;99499.91;;;21.85;100.00
21086;BME280;34247;50.064;19.970;2022-08-25T01:54:17;99498.41;;;21.83;100.00
21086;BME280;34247;50.064;19.970;2022-08-25T01:55:28;99499.25;;;21.83;100.00
21086;BME280;34247;50.064;19.970;2022-08-25T01:56:40;99496.38;;;21.85;100.00
21086;BME280;34247;50.064;19.970;2022-08-25T01:57:54;99492.00;;;21.84;100.00
21086;BME280;34247;50.064;19.970;2022-08-25T01:59:06;99490.50;;;21.81;100.00
21086;BME280;34247;50.064;19.970;2022-08-25T02:00:22;99493.00;;;21.83;100.00
21086;BME280;34247;50.064;19.970;2022-08-25T02:01:41;99491.16;;;21.83;100.00
21086;BME280;34247;50.064;19.970;2022-08-25T02:02:53;99485.09;;;21.81;100.00
21086;BME280;34247;50.064;19.970;2022-08-25T02:04:06;99486.78;;;21.82;100.00
21086;BME280;34247;50.064;19.970;2022-08-25T02:05:16;99485.94;;;21.82;100.00
21086;BME280;34247;50.064;19.970;2022-08-25T02:06:33;99480.53;;;21.82;100.00
21086;BME280;34247;50.064;19.970;2022-08-25T02:07:46;99484.25;;;21.81;100.00
21086;BME280;34247;50.064;19.970;2022-08-25T02:09:07;99483.41;;;21.80;100.00
21086;BME280;34247;50.064;19.970;2022-08-25T02:10:16;99483.22;;;21.82;100.00
21086;BME280;34247;50.064;19.970;2022-08-25T02:11:27;99477.50;;;21.77;100.00
21086;BME280;34247;50.064;19.970;2022-08-25T02:12:38;99479.69;;;21.81;100.00
21086;BME280;34247;50.064;19.970;2022-08-25T02:13:51;99479.00;;;21.79;100.00
21086;BME280;34247;50.064;19.970;2022-08-25T02:15:04;99481.88;;;21.78;100.00
21086;BME280;34247;50.064;19.970;2022-08-25T02:16:29;99486.25;;;21.79;100.00
21086;BME280;34247;50.064;19.970;2022-08-25T02:17:44;99486.25;;;21.79;100.00
21086;BME280;34247;50.064;19.970;2022-08-25T02:18:57;99485.25;;;21.80;100.00
21086;BME280;34247;50.064;19.970;2022-08-25T02:20:08;99491.66;;;21.79;100.00
21086;BME280;34247;50.064;19.970;2022-08-25T02:21:17;99482.88;;;21.77;100.00
21086;BME280;34247;50.064;19.970;2022-08-25T02:22:29;99474.13;;;21.74;100.00
21086;BME280;34247;50.064;19.970;2022-08-25T02:23:38;99481.88;;;21.78;100.00
21086;BME280;34247;50.064;19.970;2022-08-25T02:24:53;99484.75;;;21.76;100.00
21086;BME280;34247;50.064;19.970;2022-08-25T02:26:05;99478.34;;;21.77;100.00
21086;BME280;34247;50.064;19.970;2022-08-25T02:27:21;99489.50;;;21.74;100.00
21086;BME280;34247;50.064;19.970;2022-08-25T02:28:30;99481.53;;;21.72;100.00
21086;BME280;34247;50.064;19.970;2022-08-25T02:29:39;99478.16;;;21.70;100.00
21086;BME280;34247;50.064;19.970;2022-08-25T02:30:48;99487.13;;;21.71;100.00
21086;BME280;34247;50.064;19.970;2022-08-25T02:32:07;99476.31;;;21.71;100.00
21086;BME280;34247;50.064;19.970;2022-08-25T02:33:15;99471.25;;;21.68;100.00
21086;BME280;34247;50.064;19.970;2022-08-25T02:34:27;99475.66;;;21.69;100.00
21086;BME280;34247;50.064;19.970;2022-08-25T02:35:41;99461.97;;;21.62;100.00
21086;BME280;34247;50.064;19.970;2022-08-25T02:36:51;99476.13;;;21.72;100.00
21086;BME280;34247;50.064;19.970;2022-08-25T02:38:14;99465.84;;;21.68;100.00
21086;BME280;34247;50.064;19.970;2022-08-25T02:39:24;99473.78;;;21.69;100.00
21086;BME280;34247;50.064;19.970;2022-08-25T02:40:33;99470.25;;;21.69;100.00
21086;BME280;34247;50.064;19.970;2022-08-25T02:41:46;99469.59;;;21.67;100.00
21086;BME280;34247;50.064;19.970;2022-08-25T02:42:58;99476.84;;;21.66;100.00
21086;BME280;34247;50.064;19.970;2022-08-25T02:44:09;99427.75;;;21.38;100.00
21086;BME280;34247;50.064;19.970;2022-08-25T02:45:19;99472.44;;;21.65;100.00
21086;BME280;34247;50.064;19.970;2022-08-25T02:46:30;99476.00;;;21.66;100.00
21086;BME280;34247;50.064;19.970;2022-08-25T02:47:39;99476.84;;;21.66;100.00
21086;BME280;34247;50.064;19.970;2022-08-25T02:48:48;99473.63;;;21.63;100.00
21086;BME280;34247;50.064;19.970;2022-08-25T02:49:59;99475.13;;;21.65;100.00
21086;BME280;34247;50.064;19.970;2022-08-25T02:51:12;99478.34;;;21.69;100.00
21086;BME280;34247;50.064;19.970;2022-08-25T02:52:27;99482.25;;;21.66;100.00
21086;BME280;34247;50.064;19.970;2022-08-25T02:53:40;99467.56;;;21.61;100.00
21086;BME280;34247;50.064;19.970;2022-08-25T02:54:52;99476.84;;;21.66;100.00
21086;BME280;34247;50.064;19.970;2022-08-25T02:56:03;99474.28;;;21.65;100.00
21086;BME280;34247;50.064;19.970;2022-08-25T02:57:15;99486.63;;;21.67;100.00
21086;BME280;34247;50.064;19.970;2022-08-25T02:58:28;99477.84;;;21.65;100.00
21086;BME280;34247;50.064;19.970;2022-08-25T02:59:43;99483.94;;;21.67;100.00
21086;BME280;34247;50.064;19.970;2022-08-25T03:01:01;99478.69;;;21.66;100.00
21086;BME280;34247;50.064;19.970;2022-08-25T03:02:24;99470.09;;;21.62;100.00
21086;BME280;34247;50.064;19.970;2022-08-25T03:03:34;99476.84;;;21.66;100.00
21086;BME280;34247;50.064;19.970;2022-08-25T03:04:46;99475.47;;;21.62;100.00
21086;BME280;34247;50.064;19.970;2022-08-25T03:06:00;99482.75;;;21.62;100.00
21086;BME280;34247;50.064;19.970;2022-08-25T03:07:13;99473.97;;;21.60;100.00
21086;BME280;34247;50.064;19.970;2022-08-25T03:08:31;99470.75;;;21.56;100.00
21086;BME280;34247;50.064;19.970;2022-08-25T03:09:38;99473.47;;;21.56;100.00
21086;BME280;34247;50.064;19.970;2022-08-25T03:10:47;99471.59;;;21.57;100.00
21086;BME280;34247;50.064;19.970;2022-08-25T03:11:58;99474.47;;;21.55;100.00
21086;BME280;34247;50.064;19.970;2022-08-25T03:13:07;99465.72;;;21.53;100.00
21086;BME280;34247;50.064;19.970;2022-08-25T03:14:18;99467.41;;;21.54;100.00
21086;BME280;34247;50.064;19.970;2022-08-25T03:15:32;99467.75;;;21.51;100.00
21086;BME280;34247;50.064;19.970;2022-08-25T03:16:45;99470.28;;;21.53;100.00
21086;BME280;34247;50.064;19.970;2022-08-25T03:17:57;99465.72;;;21.53;100.00
21086;BME280;34247;50.064;19.970;2022-08-25T03:19:12;99459.47;;;21.53;100.00
21086;BME280;34247;50.064;19.970;2022-08-25T03:20:27;99464.69;;;21.54;100.00
21086;BME280;34247;50.064;19.970;2022-08-25T03:21:38;99469.44;;;21.52;100.00
21086;BME280;34247;50.064;19.970;2022-08-25T03:22:54;99460.50;;;21.52;100.00
21086;BME280;34247;50.064;19.970;2022-08-25T03:24:09;99469.44;;;21.52;100.00
21086;BME280;34247;50.064;19.970;2022-08-25T03:25:18;99460.63;;;21.50;100.00
21086;BME280;34247;50.064;19.970;2022-08-25T03:26:45;99474.00;;;21.52;100.00
21086;BME280;34247;50.064;19.970;2022-08-25T03:28:11;99464.03;;;21.52;100.00
21086;BME280;34247;50.064;19.970;2022-08-25T03:29:24;99465.88;;;21.52;100.00
21086;BME280;34247;50.064;19.970;2022-08-25T03:30:43;99466.88;;;21.51;100.00
21086;BME280;34247;50.064;19.970;2022-08-25T03:32:01;99470.44;;;21.51;100.00
21086;BME280;34247;50.064;19.970;2022-08-25T03:33:20;99465.06;;;21.51;100.00
21086;BME280;34247;50.064;19.970;2022-08-25T03:34:30;99469.44;;;21.52;100.00
21086;BME280;34247;50.064;19.970;2022-08-25T03:35:42;99461.66;;;21.49;100.00
21086;BME280;34247;50.064;19.970;2022-08-25T03:36:55;99457.28;;;21.48;100.00
21086;BME280;34247;50.064;19.970;2022-08-25T03:38:12;99462.50;;;21.50;100.00
21086;BME280;34247;50.064;19.970;2022-08-25T03:39:25;99465.88;;;21.52;100.00
21086;BME280;34247;50.064;19.970;2022-08-25T03:40:43;99465.88;;;21.52;100.00
21086;BME280;34247;50.064;19.970;2022-08-25T03:41:53;99462.34;;;21.51;100.00
21086;BME280;34247;50.064;19.970;2022-08-25T03:43:02;99460.63;;;21.50;100.00
21086;BME280;34247;50.064;19.970;2022-08-25T03:44:15;99465.06;;;21.51;100.00
21086;BME280;34247;50.064;19.970;2022-08-25T03:45:24;99467.75;;;21.51;100.00
21086;BME280;34247;50.064;19.970;2022-08-25T03:46:51;99460.50;;;21.52;100.00
21086;BME280;34247;50.064;19.970;2022-08-25T03:48:10;99461.31;;;21.52;100.00
21086;BME280;34247;50.064;19.970;2022-08-25T03:49:23;99463.00;;;21.53;100.00
21086;BME280;34247;50.064;19.970;2022-08-25T03:50:51;99463.34;;;21.50;100.00
21086;BME280;34247;50.064;19.970;2022-08-25T03:52:03;99466.72;;;21.52;100.00
21086;BME280;34247;50.064;19.970;2022-08-25T03:53:14;99460.63;;;21.50;100.00
21086;BME280;34247;50.064;19.970;2022-08-25T03:54:27;99457.94;;;21.50;100.00
21086;BME280;34247;50.064;19.970;2022-08-25T03:55:44;99460.50;;;21.52;100.00
21086;BME280;34247;50.064;19.970;2022-08-25T03:56:58;99455.22;;;21.50;100.00
21086;BME280;34247;50.064;19.970;2022-08-25T03:58:14;99453.56;;;21.49;100.00
21086;BME280;34247;50.064;19.970;2022-08-25T03:59:27;99453.56;;;21.49;100.00
21086;BME280;34247;50.064;19.970;2022-08-25T04:00:36;99459.78;;;21.50;100.00
21086;BME280;34247;50.064;19.970;2022-08-25T04:01:51;99452.53;;;21.50;100.00
21086;BME280;34247;50.064;19.970;2022-08-25T04:03:03;99456.94;;;21.51;100.00
21086;BME280;34247;50.064;19.970;2022-08-25T04:04:21;99462.00;;;21.54;100.00
21086;BME280;34247;50.064;19.970;2022-08-25T04:05:37;99459.47;;;21.53;100.00
21086;BME280;34247;50.064;19.970;2022-08-25T04:06:53;99452.88;;;21.55;100.00
21086;BME280;34247;50.064;19.970;2022-08-25T04:08:09;99455.41;;;21.57;100.00
21086;BME280;34247;50.064;19.970;2022-08-25T04:09:19;99462.66;;;21.56;100.00
21086;BME280;34247;50.064;19.970;2022-08-25T04:10:30;99457.25;;;21.56;100.00
21086;BME280;34247;50.064;19.970;2022-08-25T04:11:41;99457.91;;;21.58;100.00
21086;BME280;34247;50.064;19.970;2022-08-25T04:13:02;99456.94;;;21.59;100.00
21086;BME280;34247;50.064;19.970;2022-08-25T04:14:15;99459.28;;;21.62;100.00
21086;BME280;34247;50.064;19.970;2022-08-25T04:15:28;99456.41;;;21.64;100.00
21086;BME280;34247;50.064;19.970;2022-08-25T04:16:46;99456.41;;;21.64;100.00
21086;BME280;34247;50.064;19.970;2022-08-25T04:18:00;99445.94;;;21.61;100.00
21086;BME280;34247;50.064;19.970;2022-08-25T04:19:10;99454.88;;;21.69;100.00
21086;BME280;34247;50.064;19.970;2022-08-25T04:20:30;99458.25;;;21.71;100.00
21086;BME280;34247;50.064;19.970;2022-08-25T04:21:43;99413.41;;;21.46;100.00
21086;BME280;34247;50.064;19.970;2022-08-25T04:23:10;99455.22;;;21.74;100.00
21086;BME280;34247;50.064;19.970;2022-08-25T04:24:26;99460.44;;;21.76;100.00
21086;BME280;34247;50.064;19.970;2022-08-25T04:25:51;99461.28;;;21.77;100.00
21086;BME280;34247;50.064;19.970;2022-08-25T04:27:08;99456.53;;;21.79;100.00
21086;BME280;34247;50.064;19.970;2022-08-25T04:28:32;99455.19;;;21.83;100.00
21086;BME280;34247;50.064;19.970;2022-08-25T04:29:45;99461.63;;;21.82;100.00
21086;BME280;34247;50.064;19.970;2022-08-25T04:30:54;99457.72;;;21.84;100.00
21086;BME280;34247;50.064;19.970;2022-08-25T04:32:06;99467.31;;;21.87;100.00
21086;BME280;34247;50.064;19.970;2022-08-25T04:33:15;99465.13;;;21.90;100.00
21086;BME280;34247;50.064;19.970;2022-08-25T04:34:28;99474.44;;;21.88;100.00
21086;BME280;34247;50.064;19.970;2022-08-25T04:35:37;99470.72;;;21.89;100.00
21086;BME280;34247;50.064;19.970;2022-08-25T04:36:52;99468.31;;;21.94;100.00
21086;BME280;34247;50.064;19.970;2022-08-25T04:38:04;99471.84;;;21.94;100.00
21086;BME280;34247;50.064;19.970;2022-08-25T04:39:18;99482.53;;;21.96;100.00
21086;BME280;34247;50.064;19.970;2022-08-25T04:40:31;99478.44;;;22.00;100.00
21086;BME280;34247;50.064;19.970;2022-08-25T04:41:44;99471.16;;;22.00;100.00
21086;BME280;34247;50.064;19.970;2022-08-25T04:42:52;99470.16;;;22.01;100.00
21086;BME280;34247;50.064;19.970;2022-08-25T04:44:02;99464.41;;;22.05;100.00
21086;BME280;34247;50.064;19.970;2022-08-25T04:45:12;99466.94;;;22.06;100.00
21086;BME280;34247;50.064;19.970;2022-08-25T04:46:26;99466.75;;;22.08;100.00
21086;BME280;34247;50.064;19.970;2022-08-25T04:47:41;99472.06;;;22.09;100.00
21086;BME280;34247;50.064;19.970;2022-08-25T04:48:55;99466.28;;;22.12;100.00
21086;BME280;34247;50.064;19.970;2022-08-25T04:50:06;99460.88;;;22.12;100.00
21086;BME280;34247;50.064;19.970;2022-08-25T04:51:30;99466.44;;;22.19;100.00
21086;BME280;34247;50.064;19.970;2022-08-25T04:52:39;99463.38;;;22.22;100.00
21086;BME280;34247;50.064;19.970;2022-08-25T04:53:59;99456.94;;;22.23;100.00
21086;BME280;34247;50.064;19.970;2022-08-25T04:55:14;99457.44;;;22.26;100.00
21086;BME280;34247;50.064;19.970;2022-08-25T04:56:32;99462.47;;;22.29;100.00
21086;BME280;34247;50.064;19.970;2022-08-25T04:57:44;99456.75;;;22.33;100.00
21086;BME280;34247;50.064;19.970;2022-08-25T04:58:55;99462.63;;;22.36;100.00
21086;BME280;34247;50.064;19.970;2022-08-25T05:00:05;99467.69;;;22.39;100.00
21086;BME280;34247;50.064;19.970;2022-08-25T05:01:21;99459.59;;;22.39;100.00
21086;BME280;34247;50.064;19.970;2022-08-25T05:02:39;99463.78;;;22.42;100.00
21086;BME280;34247;50.064;19.970;2022-08-25T05:03:59;99451.81;;;22.36;100.00
21086;BME280;34247;50.064;19.970;2022-08-25T05:05:11;99454.13;;;22.47;100.00
21086;BME280;34247;50.064;19.970;2022-08-25T05:06:20;99456.84;;;22.47;100.00
21086;BME280;34247;50.064;19.970;2022-08-25T05:07:40;99466.28;;;22.51;100.00
21086;BME280;34247;50.064;19.970;2022-08-25T05:08:48;99456.97;;;22.54;100.00
21086;BME280;34247;50.064;19.970;2022-08-25T05:10:04;99459.31;;;22.57;100.00
21086;BME280;34247;50.064;19.970;2022-08-25T05:11:20;99456.09;;;22.62;100.00
21086;BME280;34247;50.064;19.970;2022-08-25T05:12:32;99447.78;;;22.63;100.00
21086;BME280;34247;50.064;19.970;2022-08-25T05:13:41;99455.91;;;22.63;100.00
21086;BME280;34247;50.064;19.970;2022-08-25T05:14:58;99449.13;;;22.67;100.00
21086;BME280;34247;50.064;19.970;2022-08-25T05:16:29;99448.75;;;22.70;100.00
21086;BME280;34247;50.064;19.970;2022-08-25T05:17:56;99452.50;;;22.69;100.00
21086;BME280;34247;50.064;19.970;2022-08-25T05:19:08;99446.25;;;22.69;100.00
21086;BME280;34247;50.064;19.970;2022-08-25T05:20:19;99453.97;;;22.72;100.00
21086;BME280;34247;50.064;19.970;2022-08-25T05:21:29;99446.72;;;22.72;100.00
21086;BME280;34247;50.064;19.970;2022-08-25T05:22:44;99454.31;;;22.77;100.00
21086;BME280;34247;50.064;19.970;2022-08-25T05:24:00;99455.59;;;22.81;100.00
21086;BME280;34247;50.064;19.970;2022-08-25T05:25:21;99448.84;;;22.85;100.00
21086;BME280;34247;50.064;19.970;2022-08-25T05:26:38;99452.03;;;22.89;100.00
21086;BME280;34247;50.064;19.970;2022-08-25T05:27:57;99453.56;;;22.91;100.00
21086;BME280;34247;50.064;19.970;2022-08-25T05:29:10;99455.06;;;22.94;100.00
21086;BME280;34247;50.064;19.970;2022-08-25T05:30:21;99455.72;;;22.96;99.90
21086;BME280;34247;50.064;19.970;2022-08-25T05:31:36;99449.13;;;22.98;99.98
21086;BME280;34247;50.064;19.970;2022-08-25T05:32:52;99444.84;;;23.04;99.51
21086;BME280;34247;50.064;19.970;2022-08-25T05:34:06;99428.50;;;22.97;99.19
21086;BME280;34247;50.064;19.970;2022-08-25T05:35:17;99448.97;;;23.15;98.93
21086;BME280;34247;50.064;19.970;2022-08-25T05:36:27;99444.91;;;23.19;98.71
21086;BME280;34247;50.064;19.970;2022-08-25T05:37:39;99444.34;;;23.23;98.02
21086;BME280;34247;50.064;19.970;2022-08-25T05:38:50;99449.88;;;23.30;98.12
21086;BME280;34247;50.064;19.970;2022-08-25T05:40:08;99452.69;;;23.36;97.52
21086;BME280;34247;50.064;19.970;2022-08-25T05:41:26;99447.00;;;23.46;97.46
21086;BME280;34247;50.064;19.970;2022-08-25T05:42:37;99438.16;;;23.52;97.08
21086;BME280;34247;50.064;19.970;2022-08-25T05:43:47;99448.41;;;23.65;96.70
21086;BME280;34247;50.064;19.970;2022-08-25T05:45:05;99448.78;;;23.77;95.86
21086;BME280;34247;50.064;19.970;2022-08-25T05:46:27;99443.72;;;23.88;95.04
21086;BME280;34247;50.064;19.970;2022-08-25T05:47:37;99448.06;;;23.98;94.82
21086;BME280;34247;50.064;19.970;2022-08-25T05:48:52;99447.97;;;24.06;93.70
21086;BME280;34247;50.064;19.970;2022-08-25T05:50:06;99433.09;;;24.02;93.02
21086;BME280;34247;50.064;19.970;2022-08-25T05:51:22;99453.19;;;24.22;92.87
21086;BME280;34247;50.064;19.970;2022-08-25T05:52:38;99450.34;;;24.30;92.21
21086;BME280;34247;50.064;19.970;2022-08-25T05:53:53;99442.16;;;24.38;91.44
21086;BME280;34247;50.064;19.970;2022-08-25T05:55:07;99449.81;;;24.50;90.84
21086;BME280;34247;50.064;19.970;2022-08-25T05:56:18;99440.03;;;24.55;90.06
21086;BME280;34247;50.064;19.970;2022-08-25T05:57:41;99439.56;;;24.66;88.97
21086;BME280;34247;50.064;19.970;2022-08-25T05:58:51;99438.41;;;24.75;89.09
21086;BME280;34247;50.064;19.970;2022-08-25T06:00:09;99439.09;;;24.84;88.20
21086;BME280;34247;50.064;19.970;2022-08-25T06:01:29;99442.16;;;24.96;87.56
21086;BME280;34247;50.064;19.970;2022-08-25T06:03:00;99447.97;;;25.08;86.18
21086;BME280;34247;50.064;19.970;2022-08-25T06:04:21;99440.06;;;25.13;86.54
21086;BME280;34247;50.064;19.970;2022-08-25T06:05:33;99439.34;;;25.25;85.74
21086;BME280;34247;50.064;19.970;2022-08-25T06:06:42;99441.06;;;25.33;85.07
21086;BME280;34247;50.064;19.970;2022-08-25T06:08:02;99438.53;;;25.53;84.26
21086;BME280;34247;50.064;19.970;2022-08-25T06:09:15;99444.06;;;25.66;83.31
21086;BME280;34247;50.064;19.970;2022-08-25T06:10:32;99441.66;;;25.78;82.43
21086;BME280;34247;50.064;19.970;2022-08-25T06:11:52;99437.81;;;25.94;81.77
21086;BME280;34247;50.064;19.970;2022-08-25T06:13:23;99383.34;;;25.80;80.32
21086;BME280;34247;50.064;19.970;2022-08-25T06:14:41;99439.00;;;26.26;79.76
21086;BME280;34247;50.064;19.970;2022-08-25T06:16:00;99437.63;;;26.43;79.12
21086;BME280;34247;50.064;19.970;2022-08-25T06:17:21;99448.38;;;26.58;77.18
21086;BME280;34247;50.064;19.970;2022-08-25T06:18:38;99439.19;;;26.72;76.82
21086;BME280;34247;50.064;19.970;2022-08-25T06:19:56;99438.84;;;26.82;76.54
21086;BME280;34247;50.064;19.970;2022-08-25T06:21:15;99442.41;;;26.89;76.19
21086;BME280;34247;50.064;19.970;2022-08-25T06:22:28;99444.50;;;27.00;75.25
21086;BME280;34247;50.064;19.970;2022-08-25T06:23:40;99437.22;;;27.07;74.75
21086;BME280;34247;50.064;19.970;2022-08-25T06:25:07;99449.59;;;27.23;74.14
21086;BME280;34247;50.064;19.970;2022-08-25T06:26:20;99442.69;;;27.40;73.77
21086;BME280;34247;50.064;19.970;2022-08-25T06:27:37;99446.03;;;27.56;72.36
21086;BME280;34247;50.064;19.970;2022-08-25T06:29:00;99445.63;;;27.79;71.71
21086;BME280;34247;50.064;19.970;2022-08-25T06:30:17;99450.22;;;27.98;70.32
21086;BME280;34247;50.064;19.970;2022-08-25T06:31:35;99448.88;;;28.27;69.36
21086;BME280;34247;50.064;19.970;2022-08-25T06:32:47;99452.38;;;28.54;68.21